createdAt,value
2018-08-09T00:00:26.688Z,11.90
2018-08-09T00:02:56.466Z,16.83
2018-08-09T00:05:26.299Z,12.63
2018-08-09T00:07:55.920Z,12.33
2018-08-09T00:10:25.537Z,11.37
2018-08-09T00:12:55.211Z,12.23
2018-08-09T00:15:24.899Z,10.93
2018-08-09T00:17:54.548Z,10.23
2018-08-09T00:20:24.184Z,10.57
2018-08-09T00:22:53.797Z,10.10
2018-08-09T00:25:23.394Z,10.67
2018-08-09T00:27:52.967Z,11.43
2018-08-09T00:30:22.580Z,10.90
2018-08-09T00:32:52.169Z,11.07
2018-08-09T00:35:21.760Z,11.50
2018-08-09T00:37:51.398Z,10.87
2018-08-09T00:40:21.010Z,11.27
2018-08-09T00:42:50.681Z,11.97
2018-08-09T00:45:20.332Z,11.37
2018-08-09T00:47:49.875Z,11.20
2018-08-09T00:50:19.453Z,11.37
2018-08-09T00:52:49.098Z,11.90
2018-08-09T00:55:18.653Z,12.40
2018-08-09T00:57:48.977Z,12.00
2018-08-09T01:00:18.619Z,11.77
2018-08-09T01:02:48.168Z,11.97
2018-08-09T01:05:17.790Z,11.40
2018-08-09T01:07:47.359Z,12.13
2018-08-09T01:10:16.887Z,11.90
2018-08-09T01:12:46.579Z,10.60
2018-08-09T01:15:16.255Z,11.10
2018-08-09T01:17:45.834Z,11.90
2018-08-09T01:20:15.469Z,12.27
2018-08-09T01:22:45.144Z,12.00
2018-08-09T01:25:14.678Z,11.33
2018-08-09T01:27:44.307Z,11.07
2018-08-09T01:30:13.968Z,10.77
2018-08-09T01:32:43.817Z,11.57
2018-08-09T01:35:13.403Z,11.53
2018-08-09T01:37:43.063Z,11.20
2018-08-09T01:40:12.656Z,11.93
2018-08-09T01:42:53.202Z,11.33
2018-08-09T01:45:22.803Z,11.50
2018-08-09T01:47:52.435Z,10.90
2018-08-09T01:50:22.123Z,11.40
2018-08-09T01:52:51.667Z,11.30
2018-08-09T01:55:21.286Z,11.43
2018-08-09T01:57:50.944Z,10.60
2018-08-09T02:00:20.522Z,11.10
2018-08-09T02:02:50.212Z,10.27
2018-08-09T02:05:19.817Z,11.27
2018-08-09T02:07:49.435Z,11.60
2018-08-09T02:10:19.063Z,11.60
2018-08-09T02:12:48.679Z,10.87
2018-08-09T02:15:18.281Z,11.43
2018-08-09T02:17:47.822Z,11.23
2018-08-09T02:20:17.336Z,11.30
2018-08-09T02:22:46.961Z,11.00
2018-08-09T02:25:16.580Z,11.40
2018-08-09T02:27:46.297Z,11.03
2018-08-09T02:30:15.937Z,11.27
2018-08-09T02:32:45.593Z,10.73
2018-08-09T02:35:15.137Z,11.10
2018-08-09T02:37:44.999Z,11.30
2018-08-09T02:40:14.573Z,10.30
2018-08-09T02:42:44.147Z,10.47
2018-08-09T02:45:13.750Z,10.83
2018-08-09T02:47:43.390Z,10.77
2018-08-09T02:50:13.039Z,11.40
2018-08-09T02:52:42.583Z,10.73
2018-08-09T02:55:12.221Z,10.47
2018-08-09T02:57:41.750Z,10.53
2018-08-09T03:00:11.345Z,11.17
2018-08-09T03:02:40.900Z,10.80
2018-08-09T03:05:10.571Z,10.40
2018-08-09T03:07:40.219Z,10.40
2018-08-09T03:10:16.362Z,10.87
2018-08-09T03:12:45.995Z,10.47
2018-08-09T03:15:15.616Z,10.90
2018-08-09T03:17:45.194Z,11.17
2018-08-09T03:20:14.856Z,10.90
2018-08-09T03:22:44.874Z,10.43
2018-08-09T03:25:14.492Z,10.70
2018-08-09T03:27:44.136Z,11.17
2018-08-09T03:30:13.722Z,11.30
2018-08-09T03:32:43.368Z,10.90
2018-08-09T03:35:13.027Z,11.20
2018-08-09T03:37:42.616Z,11.57
2018-08-09T03:40:12.202Z,11.70
2018-08-09T03:42:41.785Z,11.07
2018-08-09T03:45:11.376Z,11.20
2018-08-09T03:47:47.398Z,11.80
2018-08-09T03:50:16.991Z,11.53
2018-08-09T03:52:46.549Z,11.20
2018-08-09T03:55:16.237Z,11.43
2018-08-09T03:57:45.788Z,10.70
2018-08-09T04:00:15.434Z,10.80
2018-08-09T04:02:45.111Z,11.37
2018-08-09T04:05:14.797Z,11.10
2018-08-09T04:07:44.387Z,10.83
2018-08-09T04:10:13.988Z,10.90
2018-08-09T04:12:43.589Z,10.40
2018-08-09T04:15:13.497Z,9.70
2018-08-09T04:17:43.051Z,10.70
2018-08-09T04:20:12.716Z,10.67
2018-08-09T04:22:42.591Z,11.27
2018-08-09T04:25:12.171Z,10.53
2018-08-09T04:27:41.745Z,10.50
2018-08-09T04:30:11.467Z,11.10
2018-08-09T04:32:41.069Z,10.43
2018-08-09T04:35:10.732Z,9.90
2018-08-09T04:37:40.365Z,10.60
2018-08-09T04:40:10.084Z,9.97
2018-08-09T04:42:39.655Z,10.50
2018-08-09T04:45:09.774Z,10.57
2018-08-09T04:47:39.448Z,11.07
2018-08-09T04:50:09.600Z,11.00
2018-08-09T04:52:39.158Z,10.97
2018-08-09T04:55:08.709Z,10.57
2018-08-09T04:57:38.301Z,11.23
2018-08-09T05:00:08.060Z,10.47
2018-08-09T05:02:37.611Z,10.87
2018-08-09T05:05:07.236Z,11.30
2018-08-09T05:07:36.817Z,10.90
2018-08-09T05:10:11.354Z,11.13
2018-08-09T05:12:42.261Z,10.47
2018-08-09T05:15:12.727Z,10.50
2018-08-09T05:17:42.305Z,10.37
2018-08-09T05:20:11.819Z,10.90
2018-08-09T05:22:41.420Z,10.27
2018-08-09T05:25:11.100Z,10.53
2018-08-09T05:27:40.728Z,10.33
2018-08-09T05:30:16.899Z,10.33
2018-08-09T05:32:46.584Z,10.20
2018-08-09T05:35:16.288Z,10.90
2018-08-09T05:37:45.968Z,10.30
2018-08-09T05:40:15.527Z,9.67
2018-08-09T05:42:45.151Z,10.40
2018-08-09T05:45:14.790Z,9.60
2018-08-09T05:47:44.422Z,10.20
2018-08-09T05:50:14.020Z,10.00
2018-08-09T05:52:43.761Z,10.50
2018-08-09T05:55:13.441Z,9.87
2018-08-09T05:57:43.066Z,9.57
2018-08-09T06:00:12.696Z,10.10
2018-08-09T06:02:42.357Z,9.77
2018-08-09T06:05:11.969Z,9.90
2018-08-09T06:07:41.521Z,9.30
2018-08-09T06:10:11.160Z,9.17
2018-08-09T06:12:40.723Z,9.00
2018-08-09T06:15:10.439Z,9.75
2018-08-09T06:17:40.039Z,10.00
2018-08-09T06:20:09.757Z,9.77
2018-08-09T06:22:39.394Z,9.50
2018-08-09T06:25:09.135Z,9.80
2018-08-09T06:27:38.713Z,10.37
2018-08-09T06:30:10.399Z,9.40
2018-08-09T06:32:40.519Z,10.13
2018-08-09T06:35:11.249Z,11.27
2018-08-09T06:37:40.881Z,12.47
2018-08-09T06:40:14.271Z,11.80
2018-08-09T06:42:44.877Z,11.27
2018-08-09T06:45:14.571Z,12.73
2018-08-09T06:47:44.227Z,14.25
2018-08-09T06:50:13.875Z,15.03
2018-08-09T06:52:43.514Z,13.90
2018-08-09T06:55:13.073Z,13.50
2018-08-09T06:57:42.623Z,13.03
2018-08-09T07:00:13.684Z,12.17
2018-08-09T07:02:43.672Z,12.57
2018-08-09T07:05:13.291Z,12.10
2018-08-09T07:07:42.820Z,12.40
2018-08-09T07:10:12.399Z,11.80
2018-08-09T07:12:41.984Z,12.27
2018-08-09T07:15:13.039Z,11.80
2018-08-09T07:17:42.762Z,11.40
2018-08-09T07:20:12.377Z,11.22
2018-08-09T07:22:42.501Z,10.75
2018-08-09T07:25:12.042Z,11.13
2018-08-09T07:27:41.673Z,12.20
2018-08-09T07:30:13.302Z,11.97
2018-08-09T07:32:42.871Z,12.03
2018-08-09T07:35:12.576Z,11.90
2018-08-09T07:37:42.219Z,12.30
2018-08-09T07:40:13.020Z,11.65
2018-08-09T07:42:43.469Z,11.40
2018-08-09T07:45:14.157Z,11.15
2018-08-09T07:47:43.880Z,11.48
2018-08-09T07:50:13.457Z,11.20
2018-08-09T07:52:43.042Z,11.25
2018-08-09T07:55:12.626Z,10.95
2018-08-09T07:57:42.188Z,11.20
2018-08-09T08:00:12.875Z,10.80
2018-08-09T08:02:42.796Z,10.60
2018-08-09T08:05:12.439Z,10.82
2018-08-09T08:07:42.001Z,11.03
2018-08-09T08:10:11.732Z,10.20
2018-08-09T08:12:41.440Z,9.83
2018-08-09T08:15:11.754Z,11.10
2018-08-09T08:17:41.466Z,10.30
2018-08-09T08:20:11.150Z,10.75
2018-08-09T08:22:40.856Z,10.68
2018-08-09T08:25:10.437Z,11.03
2018-08-09T08:27:40.156Z,11.55
2018-08-09T08:30:13.546Z,10.00
2018-08-09T08:32:43.698Z,10.80
2018-08-09T08:35:13.329Z,10.58
2018-08-09T08:37:43.039Z,10.35
2018-08-09T08:40:12.596Z,10.75
2018-08-09T08:42:42.261Z,10.25
2018-08-09T08:45:13.966Z,10.10
2018-08-09T08:47:44.163Z,9.45
2018-08-09T08:50:13.821Z,10.08
2018-08-09T08:52:43.448Z,10.80
2018-08-09T08:55:13.649Z,10.15
2018-08-09T08:57:43.266Z,11.20
2018-08-09T09:00:14.038Z,11.05
2018-08-09T09:02:43.619Z,11.38
2018-08-09T09:05:13.924Z,11.60
2018-08-09T09:07:43.478Z,11.95
2018-08-09T09:10:14.661Z,11.05
2018-08-09T09:12:44.311Z,11.48
2018-08-09T09:15:15.571Z,11.60
2018-08-09T09:17:45.658Z,11.43
2018-08-09T09:20:17.336Z,11.00
2018-08-09T09:22:46.985Z,11.70
2018-08-09T09:25:16.702Z,11.38
2018-08-09T09:27:46.360Z,12.03
2018-08-09T09:30:41.164Z,11.70
2018-08-09T09:33:10.762Z,12.03
2018-08-09T09:35:40.350Z,11.83
2018-08-09T09:38:09.910Z,12.00
2018-08-09T09:40:39.540Z,11.73
2018-08-09T09:43:09.239Z,11.75
2018-08-09T09:45:38.874Z,11.78
2018-08-09T09:48:08.606Z,12.28
2018-08-09T09:50:38.197Z,11.80
2018-08-09T09:53:07.860Z,12.93
2018-08-09T09:55:37.481Z,11.70
2018-08-09T09:58:07.072Z,11.57
2018-08-09T10:00:41.664Z,12.05
2018-08-09T10:03:11.247Z,12.07
2018-08-09T10:05:40.823Z,13.32
2018-08-09T10:08:10.435Z,12.63
2018-08-09T10:10:40.042Z,12.80
2018-08-09T10:13:09.632Z,12.85
2018-08-09T10:15:39.295Z,12.07
2018-08-09T10:18:08.855Z,12.95
2018-08-09T10:20:38.988Z,12.23
2018-08-09T10:23:08.802Z,13.05
2018-08-09T10:25:38.414Z,12.93
2018-08-09T10:28:08.116Z,12.47
2018-08-09T10:30:37.765Z,12.55
2018-08-09T10:33:07.426Z,12.25
2018-08-09T10:35:37.089Z,13.30
2018-08-09T10:38:06.674Z,11.83
2018-08-09T10:40:36.296Z,12.40
2018-08-09T10:43:05.990Z,13.13
2018-08-09T10:45:35.649Z,12.90
2018-08-09T10:48:05.347Z,11.55
2018-08-09T10:50:34.913Z,12.65
2018-08-09T10:53:04.860Z,13.15
2018-08-09T10:55:34.576Z,14.07
2018-08-09T10:58:04.180Z,13.70
2018-08-09T11:00:33.716Z,12.15
2018-08-09T11:03:03.341Z,12.18
2018-08-09T11:05:33.016Z,11.63
2018-08-09T11:08:02.676Z,12.88
2018-08-09T11:10:32.339Z,11.28
2018-08-09T11:13:01.982Z,12.47
2018-08-09T11:15:31.592Z,11.60
2018-08-09T11:18:01.225Z,11.93
2018-08-09T11:20:30.901Z,11.93
2018-08-09T11:23:00.491Z,12.23
2018-08-09T11:25:30.156Z,10.65
2018-08-09T11:27:59.785Z,11.93
2018-08-09T11:30:29.511Z,11.15
2018-08-09T11:32:59.168Z,11.63
2018-08-09T11:35:28.762Z,11.80
2018-08-09T11:37:58.322Z,11.65
2018-08-09T11:40:27.943Z,11.93
2018-08-09T11:42:57.527Z,13.45
2018-08-09T11:45:27.098Z,13.13
2018-08-09T11:47:56.726Z,14.15
2018-08-09T11:50:26.345Z,13.13
2018-08-09T11:52:55.972Z,13.28
2018-08-09T11:55:25.501Z,13.68
2018-08-09T11:57:55.141Z,12.93
2018-08-09T12:00:24.721Z,13.05
2018-08-09T12:02:54.308Z,14.28
2018-08-09T12:05:23.951Z,13.43
2018-08-09T12:07:53.536Z,14.13
2018-08-09T12:10:23.220Z,13.30
2018-08-09T12:12:52.997Z,13.70
2018-08-09T12:15:22.695Z,13.85
2018-08-09T12:17:52.430Z,13.48
2018-08-09T12:20:22.082Z,14.38
2018-08-09T12:22:51.785Z,15.48
2018-08-09T12:25:21.666Z,13.68
2018-08-09T12:27:51.224Z,14.00
2018-08-09T12:30:20.863Z,12.98
2018-08-09T12:32:50.583Z,12.70
2018-08-09T12:35:20.126Z,13.72
2018-08-09T12:37:49.822Z,13.15
2018-08-09T12:40:19.448Z,13.25
2018-08-09T12:42:49.142Z,12.68
2018-08-09T12:45:18.813Z,12.80
2018-08-09T12:47:48.535Z,13.75
2018-08-09T12:50:18.145Z,12.50
2018-08-09T12:52:47.703Z,12.33
2018-08-09T12:55:17.285Z,13.03
2018-08-09T12:57:46.908Z,12.90
2018-08-09T13:00:16.665Z,12.28
2018-08-09T13:02:46.315Z,12.50
2018-08-09T13:05:15.896Z,12.47
2018-08-09T13:07:45.443Z,12.53
2018-08-09T13:10:15.576Z,12.58
2018-08-09T13:12:45.218Z,12.60
2018-08-09T13:15:14.975Z,12.70
2018-08-09T13:17:45.683Z,12.55
2018-08-09T13:20:18.361Z,11.73
2018-08-09T13:22:49.166Z,10.80
2018-08-09T13:25:18.841Z,10.15
2018-08-09T13:27:48.950Z,10.68
2018-08-09T13:30:18.547Z,10.80
2018-08-09T13:32:48.143Z,10.10
2018-08-09T13:35:17.776Z,11.12
2018-08-09T13:37:47.439Z,11.12
2018-08-09T13:40:17.046Z,12.68
2018-08-09T13:42:46.681Z,10.53
2018-08-09T13:45:17.278Z,11.50
2018-08-09T13:47:46.888Z,11.63
2018-08-09T13:50:16.575Z,10.90
2018-08-09T13:52:46.195Z,10.35
2018-08-09T13:55:16.365Z,11.22
2018-08-09T13:57:46.092Z,10.80
2018-08-09T14:00:15.905Z,10.68
2018-08-09T14:02:46.262Z,9.85
2018-08-09T14:05:16.017Z,10.53
2018-08-09T14:07:45.616Z,9.05
2018-08-09T14:10:15.265Z,10.15
2018-08-09T14:12:44.866Z,9.60
2018-08-09T14:15:15.736Z,9.80
2018-08-09T14:17:45.442Z,9.65
2018-08-09T14:20:17.122Z,9.95
2018-08-09T14:22:47.097Z,9.00
2018-08-09T14:25:16.759Z,10.33
2018-08-09T14:27:46.554Z,10.10
2018-08-09T14:30:16.859Z,9.80
2018-08-09T14:32:46.474Z,9.80
2018-08-09T14:35:17.090Z,9.65
2018-08-09T14:37:47.250Z,9.68
2018-08-09T14:40:17.455Z,10.03
2018-08-09T14:42:47.004Z,10.43
2018-08-09T14:45:17.379Z,9.73
2018-08-09T14:47:47.135Z,9.60
2018-08-09T14:50:16.781Z,10.30
2018-08-09T14:52:46.519Z,9.60
2018-08-09T14:55:16.253Z,10.38
2018-08-09T14:57:46.037Z,9.50
2018-08-09T15:00:18.427Z,10.05
2018-08-09T15:02:48.507Z,10.43
2018-08-09T15:05:18.648Z,9.70
2018-08-09T15:07:48.310Z,9.15
2018-08-09T15:10:18.919Z,9.03
2018-08-09T15:12:48.508Z,9.10
2018-08-09T15:15:18.230Z,10.25
2018-08-09T15:17:47.841Z,11.53
2018-08-09T15:20:17.498Z,12.30
2018-08-09T15:22:47.124Z,12.03
2018-08-09T15:25:16.763Z,12.90
2018-08-09T15:27:46.426Z,13.35
2018-08-09T15:30:18.056Z,12.05
2018-08-09T15:32:48.129Z,11.70
2018-08-09T15:35:17.979Z,12.23
2018-08-09T15:37:47.623Z,12.68
2018-08-09T15:40:17.213Z,11.33
2018-08-09T15:42:46.863Z,12.40
2018-08-09T15:45:16.952Z,13.18
2018-08-09T15:47:46.659Z,13.32
2018-08-09T15:50:19.869Z,13.83
2018-08-09T15:52:49.483Z,14.85
2018-08-09T15:55:19.702Z,15.53
2018-08-09T15:57:49.354Z,14.98
2018-08-09T16:00:21.112Z,14.25
2018-08-09T16:02:50.786Z,15.60
2018-08-09T16:05:20.656Z,15.75
2018-08-09T16:07:50.307Z,16.35
2018-08-09T16:10:19.967Z,16.12
2018-08-09T16:12:49.730Z,15.90
2018-08-09T16:15:20.354Z,15.83
2018-08-09T16:17:50.468Z,18.50
2018-08-09T16:20:20.181Z,18.65
2018-08-09T16:22:49.895Z,19.05
2018-08-09T16:25:20.403Z,20.20
2018-08-09T16:27:50.781Z,20.65
2018-08-09T16:30:22.656Z,19.32
2018-08-09T16:32:52.344Z,21.15
2018-08-09T16:35:22.138Z,18.87
2018-08-09T16:37:51.992Z,17.57
2018-08-09T16:40:24.580Z,16.42
2018-08-09T16:42:54.294Z,17.70
2018-08-09T16:45:24.888Z,17.35
2018-08-09T16:47:55.254Z,17.75
2018-08-09T16:50:27.866Z,15.78
2018-08-09T16:52:57.536Z,16.48
2018-08-09T16:55:27.511Z,14.65
2018-08-09T16:57:57.100Z,14.35
2018-08-09T17:00:26.798Z,13.98
2018-08-09T17:02:56.743Z,13.68
2018-08-09T17:05:28.385Z,13.08
2018-08-09T17:07:58.771Z,13.22
2018-08-09T17:10:28.792Z,12.95
2018-08-09T17:12:58.541Z,13.98
2018-08-09T17:15:29.289Z,12.90
2018-08-09T17:17:59.694Z,12.68
2018-08-09T17:20:31.289Z,13.32
2018-08-09T17:23:01.891Z,12.60
2018-08-09T17:25:31.635Z,12.43
2018-08-09T17:28:01.304Z,12.70
2018-08-09T17:30:31.066Z,12.45
2018-08-09T17:33:00.900Z,12.73
2018-08-09T17:35:30.751Z,11.18
2018-08-09T17:38:00.507Z,12.05
2018-08-09T17:40:32.889Z,10.63
2018-08-09T17:43:03.477Z,10.48
2018-08-09T17:45:34.493Z,9.20
2018-08-09T17:48:04.625Z,8.45
2018-08-09T17:50:34.543Z,8.80
2018-08-09T17:53:04.919Z,8.90
2018-08-09T17:55:34.701Z,8.80
2018-08-09T17:58:04.494Z,8.83
2018-08-09T18:00:35.436Z,9.60
2018-08-09T18:03:05.702Z,8.65
2018-08-09T18:05:35.475Z,9.23
2018-08-09T18:08:05.465Z,9.03
2018-08-09T18:10:36.489Z,8.75
2018-08-09T18:13:06.218Z,8.45
2018-08-09T18:15:35.942Z,7.95
2018-08-09T18:18:05.872Z,8.60
2018-08-09T18:20:37.088Z,8.70
2018-08-09T18:23:07.044Z,8.55
2018-08-09T18:25:36.680Z,8.78
2018-08-09T18:28:06.543Z,8.65
2018-08-09T18:30:36.352Z,8.85
2018-08-09T18:33:06.131Z,8.30
2018-08-09T18:35:35.815Z,8.73
2018-08-09T18:38:05.677Z,9.00
2018-08-09T18:40:35.898Z,8.60
2018-08-09T18:43:05.920Z,8.98
2018-08-09T18:45:35.814Z,9.60
2018-08-09T18:48:06.486Z,9.30
2018-08-09T18:50:36.804Z,8.98
2018-08-09T18:53:06.977Z,9.28
2018-08-09T18:55:37.341Z,8.55
2018-08-09T18:58:07.748Z,8.90
2018-08-09T19:00:38.207Z,9.38
2018-08-09T19:03:09.431Z,8.15
2018-08-09T19:05:39.818Z,8.43
2018-08-09T19:08:10.169Z,8.45
2018-08-09T19:10:40.790Z,9.35
2018-08-09T19:13:11.216Z,8.90
2018-08-09T19:15:41.632Z,8.80
2018-08-09T19:18:12.118Z,9.18
2018-08-09T19:20:43.332Z,9.63
2018-08-09T19:23:13.682Z,9.15
2018-08-09T19:25:44.186Z,9.38
2018-08-09T19:28:14.755Z,9.18
2018-08-09T19:30:45.188Z,9.15
2018-08-09T19:33:15.454Z,9.23
2018-08-09T19:35:45.916Z,9.90
2018-08-09T19:38:16.329Z,10.28
2018-08-09T19:40:46.776Z,9.68
2018-08-09T19:43:17.233Z,10.03
2018-08-09T19:45:47.556Z,10.82
2018-08-09T19:48:17.955Z,10.48
2018-08-09T19:50:48.386Z,9.55
2018-08-09T19:53:18.774Z,9.98
2018-08-09T19:55:49.412Z,10.32
2018-08-09T19:58:19.837Z,10.18
2018-08-09T20:00:50.219Z,10.78
2018-08-09T20:03:21.890Z,10.38
2018-08-09T20:05:52.344Z,9.95
2018-08-09T20:08:23.228Z,9.18
2018-08-09T20:10:53.678Z,9.85
2018-08-09T20:13:24.074Z,8.73
2018-08-09T20:15:54.602Z,10.15
2018-08-09T20:18:24.975Z,11.07
2018-08-09T20:20:55.479Z,9.30
2018-08-09T20:23:25.783Z,9.47
2018-08-09T20:25:56.118Z,9.97
2018-08-09T20:28:26.546Z,9.67
2018-08-09T20:30:56.941Z,9.33
2018-08-09T20:33:27.105Z,8.57
2018-08-09T20:35:57.446Z,8.67
2018-08-09T20:38:27.547Z,8.53
2018-08-09T20:40:57.463Z,8.07
2018-08-09T20:43:27.406Z,8.33
2018-08-09T20:45:57.112Z,8.20
2018-08-09T20:48:26.743Z,8.27
2018-08-09T20:50:56.396Z,9.03
2018-08-09T20:53:26.075Z,8.60
2018-08-09T20:55:55.891Z,8.90
2018-08-09T20:58:25.522Z,9.47
2018-08-09T21:00:55.123Z,9.17
2018-08-09T21:03:24.841Z,8.77
2018-08-09T21:05:54.570Z,8.70
2018-08-09T21:08:24.266Z,7.53
2018-08-09T21:10:53.872Z,7.73
2018-08-09T21:13:23.468Z,7.60
2018-08-09T21:15:53.087Z,7.00
2018-08-09T21:18:22.746Z,6.23
2018-08-09T21:20:52.319Z,6.53
2018-08-09T21:23:21.929Z,6.60
2018-08-09T21:25:51.512Z,6.40
2018-08-09T21:28:21.169Z,6.50
2018-08-09T21:30:50.794Z,6.50
2018-08-09T21:33:20.364Z,6.43
2018-08-09T21:35:50.019Z,5.90
2018-08-09T21:38:22.473Z,5.87
2018-08-09T21:40:52.091Z,5.87
2018-08-09T21:43:21.761Z,6.53
2018-08-09T21:45:51.379Z,6.10
2018-08-09T21:48:21.014Z,6.50
2018-08-09T21:50:50.730Z,6.50
2018-08-09T21:53:20.315Z,6.87
2018-08-09T21:55:49.947Z,7.17
2018-08-09T21:58:19.499Z,6.93
2018-08-09T22:00:56.732Z,7.13
2018-08-09T22:03:28.658Z,7.87
2018-08-09T22:06:03.248Z,7.80
2018-08-09T22:08:38.003Z,8.43
2018-08-09T22:11:13.338Z,8.17
2018-08-09T22:13:48.091Z,9.17
2018-08-09T22:16:22.815Z,8.17
2018-08-09T22:18:57.709Z,9.53
2018-08-09T22:21:32.359Z,9.07
2018-08-09T22:24:01.976Z,9.00
2018-08-09T22:26:31.730Z,9.20
2018-08-09T22:29:01.307Z,9.10
2018-08-09T22:31:30.876Z,9.63
2018-08-09T22:34:00.442Z,10.07
2018-08-09T22:36:30.200Z,9.47
2018-08-09T22:38:59.813Z,9.23
2018-08-09T22:41:29.445Z,9.53
2018-08-09T22:43:59.072Z,9.90
2018-08-09T22:46:28.685Z,10.93
2018-08-09T22:48:58.328Z,10.50
2018-08-09T22:51:27.925Z,10.13
2018-08-09T22:53:57.604Z,10.67
2018-08-09T22:56:27.254Z,11.33
2018-08-09T22:58:56.927Z,10.73
2018-08-09T23:01:26.558Z,10.90
2018-08-09T23:03:56.407Z,11.50
2018-08-09T23:06:26.271Z,10.93
2018-08-09T23:08:55.931Z,11.50
2018-08-09T23:11:25.562Z,11.40
2018-08-09T23:13:55.240Z,11.77
2018-08-09T23:16:24.847Z,11.00
2018-08-09T23:18:54.461Z,11.50
2018-08-09T23:21:24.089Z,11.37
2018-08-09T23:23:53.682Z,10.80
2018-08-09T23:26:23.416Z,10.30
2018-08-09T23:28:52.997Z,10.30
2018-08-09T23:31:22.602Z,10.20
2018-08-09T23:33:52.373Z,10.30
2018-08-09T23:36:21.988Z,10.57
2018-08-09T23:38:51.650Z,11.20
2018-08-09T23:41:21.245Z,9.87
2018-08-09T23:43:57.341Z,10.13
2018-08-09T23:46:26.935Z,10.57
2018-08-09T23:48:56.523Z,10.20
2018-08-09T23:51:26.083Z,10.30
2018-08-09T23:53:55.665Z,10.30
2018-08-09T23:56:25.264Z,10.13
2018-08-09T23:58:54.964Z,10.50
